sensor_id;sensor_type;location;lat;lon;timestamp;pressure;altitude;pressure_sealevel;temperature;humidity
80410;BME280;69746;45.596;10.154;2023-09-07T00:01:31;100012.28;;;26.21;43.66
80410;BME280;69746;45.596;10.154;2023-09-07T00:03:57;100011.44;;;26.21;43.82
80410;BME280;69746;45.596;10.154;2023-09-07T00:06:23;100022.63;;;26.21;44.11
80410;BME280;69746;45.596;10.154;2023-09-07T00:08:48;100019.84;;;26.21;43.99
80410;BME280;69746;45.596;10.154;2023-09-07T00:11:14;100025.44;;;26.21;44.08
80410;BME280;69746;45.596;10.154;2023-09-07T00:13:40;100022.63;;;26.21;44.05
80410;BME280;69746;45.596;10.154;2023-09-07T00:16:06;100023.44;;;26.21;43.82
80410;BME280;69746;45.596;10.154;2023-09-07T00:18:33;100023.44;;;26.21;43.97
80410;BME280;69746;45.596;10.154;2023-09-07T00:21:00;100022.63;;;26.21;43.48
80410;BME280;69746;45.596;10.154;2023-09-07T00:23:29;100013.44;;;26.20;43.89
80410;BME280;69746;45.596;10.154;2023-09-07T00:25:55;100020.19;;;26.19;43.53
80410;BME280;69746;45.596;10.154;2023-09-07T00:28:22;100020.19;;;26.19;43.94
80410;BME280;69746;45.596;10.154;2023-09-07T00:30:48;100017.38;;;26.19;43.49
80410;BME280;69746;45.596;10.154;2023-09-07T00:33:14;100013.75;;;26.19;43.94
80410;BME280;69746;45.596;10.154;2023-09-07T00:35:39;100009.00;;;26.19;43.45
80410;BME280;69746;45.596;10.154;2023-09-07T00:38:05;100008.16;;;26.19;43.65
80410;BME280;69746;45.596;10.154;2023-09-07T00:40:31;100012.59;;;26.20;43.49
80410;BME280;69746;45.596;10.154;2023-09-07T00:42:58;100007.84;;;26.20;43.27
80410;BME280;69746;45.596;10.154;2023-09-07T00:45:24;100009.81;;;26.20;43.50
80410;BME280;69746;45.596;10.154;2023-09-07T00:47:50;100011.28;;;26.17;43.33
80410;BME280;69746;45.596;10.154;2023-09-07T00:50:18;100008.47;;;26.17;43.23
80410;BME280;69746;45.596;10.154;2023-09-07T00:52:46;100002.06;;;26.16;43.03
80410;BME280;69746;45.596;10.154;2023-09-07T00:55:12;100003.56;;;26.14;43.27
80410;BME280;69746;45.596;10.154;2023-09-07T00:57:38;100007.16;;;26.14;43.43
80410;BME280;69746;45.596;10.154;2023-09-07T01:00:06;100001.56;;;26.14;43.58
80410;BME280;69746;45.596;10.154;2023-09-07T01:02:33;100003.22;;;26.15;43.33
80410;BME280;69746;45.596;10.154;2023-09-07T01:04:59;100006.84;;;26.16;43.44
80410;BME280;69746;45.596;10.154;2023-09-07T01:07:40;100009.63;;;26.16;43.48
80410;BME280;69746;45.596;10.154;2023-09-07T01:10:08;100005.19;;;26.15;43.14
80410;BME280;69746;45.596;10.154;2023-09-07T01:12:34;100003.91;;;26.12;43.52
80410;BME280;69746;45.596;10.154;2023-09-07T01:15:00;100007.50;;;26.13;43.35
80410;BME280;69746;45.596;10.154;2023-09-07T01:17:26;100005.53;;;26.13;42.91
80410;BME280;69746;45.596;10.154;2023-09-07T01:19:54;100004.72;;;26.13;43.38
80410;BME280;69746;45.596;10.154;2023-09-07T01:22:24;100012.28;;;26.12;43.33
80410;BME280;69746;45.596;10.154;2023-09-07T01:24:51;100009.16;;;26.14;42.89
80410;BME280;69746;45.596;10.154;2023-09-07T01:27:18;100007.16;;;26.14;43.32
80410;BME280;69746;45.596;10.154;2023-09-07T01:29:44;100007.50;;;26.13;43.49
80410;BME280;69746;45.596;10.154;2023-09-07T01:32:10;99999.47;;;26.11;42.94
80410;BME280;69746;45.596;10.154;2023-09-07T01:34:36;100006.69;;;26.12;43.47
80410;BME280;69746;45.596;10.154;2023-09-07T01:37:02;100013.09;;;26.13;42.98
80410;BME280;69746;45.596;10.154;2023-09-07T01:39:28;100003.06;;;26.12;43.03
80410;BME280;69746;45.596;10.154;2023-09-07T01:41:57;99999.13;;;26.13;43.36
80410;BME280;69746;45.596;10.154;2023-09-07T01:44:22;100001.44;;;26.11;43.03
80410;BME280;69746;45.596;10.154;2023-09-07T01:46:48;99992.72;;;26.12;43.47
80410;BME280;69746;45.596;10.154;2023-09-07T01:49:14;99997.47;;;26.12;43.38
80410;BME280;69746;45.596;10.154;2023-09-07T01:51:40;99993.88;;;26.11;43.33
80410;BME280;69746;45.596;10.154;2023-09-07T01:54:06;99987.13;;;26.12;43.20
80410;BME280;69746;45.596;10.154;2023-09-07T01:56:32;99984.31;;;26.12;42.98
80410;BME280;69746;45.596;10.154;2023-09-07T01:58:57;99987.13;;;26.12;43.34
80410;BME280;69746;45.596;10.154;2023-09-07T02:01:25;99984.31;;;26.12;42.99
80410;BME280;69746;45.596;10.154;2023-09-07T02:03:53;99988.63;;;26.10;42.87
80410;BME280;69746;45.596;10.154;2023-09-07T02:06:19;99986.97;;;26.09;43.25
80410;BME280;69746;45.596;10.154;2023-09-07T02:08:45;99990.25;;;26.11;42.98
80410;BME280;69746;45.596;10.154;2023-09-07T02:11:10;99991.06;;;26.11;43.17
80410;BME280;69746;45.596;10.154;2023-09-07T02:13:36;99991.06;;;26.11;43.06
80410;BME280;69746;45.596;10.154;2023-09-07T02:16:05;99989.44;;;26.10;42.75
80410;BME280;69746;45.596;10.154;2023-09-07T02:18:35;99997.47;;;26.12;42.69
80410;BME280;69746;45.596;10.154;2023-09-07T02:21:02;99985.00;;;26.09;42.83
80410;BME280;69746;45.596;10.154;2023-09-07T02:23:29;99985.81;;;26.10;42.69
80410;BME280;69746;45.596;10.154;2023-09-07T02:25:56;99991.41;;;26.10;42.97
80410;BME280;69746;45.596;10.154;2023-09-07T02:28:25;100001.78;;;26.09;42.57
80410;BME280;69746;45.596;10.154;2023-09-07T02:30:52;99991.75;;;26.08;43.01
80410;BME280;69746;45.596;10.154;2023-09-07T02:33:18;99993.72;;;26.08;42.92
80410;BME280;69746;45.596;10.154;2023-09-07T02:35:43;99999.78;;;26.10;42.87
80410;BME280;69746;45.596;10.154;2023-09-07T02:38:09;100003.75;;;26.09;42.92
80410;BME280;69746;45.596;10.154;2023-09-07T02:40:42;99994.53;;;26.08;42.60
80410;BME280;69746;45.596;10.154;2023-09-07T02:43:08;99999.66;;;26.06;42.88
80410;BME280;69746;45.596;10.154;2023-09-07T02:45:34;100000.13;;;26.08;42.80
80410;BME280;69746;45.596;10.154;2023-09-07T02:48:00;100004.09;;;26.07;42.69
80410;BME280;69746;45.596;10.154;2023-09-07T02:50:28;100002.44;;;26.06;42.66
80410;BME280;69746;45.596;10.154;2023-09-07T02:52:53;99992.09;;;26.07;42.69
80410;BME280;69746;45.596;10.154;2023-09-07T02:55:22;100002.94;;;26.08;42.52
80410;BME280;69746;45.596;10.154;2023-09-07T02:57:48;100000.13;;;26.08;42.60
80410;BME280;69746;45.596;10.154;2023-09-07T03:00:14;100005.72;;;26.08;42.44
80410;BME280;69746;45.596;10.154;2023-09-07T03:02:43;99992.56;;;26.09;42.92
80410;BME280;69746;45.596;10.154;2023-09-07T03:05:09;100004.91;;;26.08;42.62
80410;BME280;69746;45.596;10.154;2023-09-07T03:07:35;100007.38;;;26.09;42.51
80410;BME280;69746;45.596;10.154;2023-09-07T03:10:01;100002.25;;;26.11;42.82
80410;BME280;69746;45.596;10.154;2023-09-07T03:12:27;100003.06;;;26.12;42.60
80410;BME280;69746;45.596;10.154;2023-09-07T03:14:53;100003.06;;;26.12;42.41
80410;BME280;69746;45.596;10.154;2023-09-07T03:17:22;100002.25;;;26.11;42.64
80410;BME280;69746;45.596;10.154;2023-09-07T03:19:51;100001.44;;;26.11;42.55
80410;BME280;69746;45.596;10.154;2023-09-07T03:22:16;100008.19;;;26.10;42.50
80410;BME280;69746;45.596;10.154;2023-09-07T03:24:42;99998.16;;;26.09;42.59
80410;BME280;69746;45.596;10.154;2023-09-07T03:27:08;100006.22;;;26.10;42.55
80410;BME280;69746;45.596;10.154;2023-09-07T03:29:36;100004.56;;;26.09;42.81
80410;BME280;69746;45.596;10.154;2023-09-07T03:32:02;100003.75;;;26.09;42.48
80410;BME280;69746;45.596;10.154;2023-09-07T03:34:28;100002.09;;;26.08;42.12
80410;BME280;69746;45.596;10.154;2023-09-07T03:36:54;100000.13;;;26.08;42.57
80410;BME280;69746;45.596;10.154;2023-09-07T03:39:20;100004.56;;;26.09;42.64
80410;BME280;69746;45.596;10.154;2023-09-07T03:41:47;100000.94;;;26.09;42.30
80410;BME280;69746;45.596;10.154;2023-09-07T03:44:13;100005.25;;;26.06;42.58
80410;BME280;69746;45.596;10.154;2023-09-07T03:46:42;100005.25;;;26.06;42.41
80410;BME280;69746;45.596;10.154;2023-09-07T03:49:08;99995.69;;;26.07;42.85
80410;BME280;69746;45.596;10.154;2023-09-07T03:51:34;99993.25;;;26.06;42.29
80410;BME280;69746;45.596;10.154;2023-09-07T03:54:00;99990.94;;;26.08;42.77
80410;BME280;69746;45.596;10.154;2023-09-07T03:56:26;100000.94;;;26.09;42.68
80410;BME280;69746;45.596;10.154;2023-09-07T03:58:52;99994.53;;;26.08;42.70
80410;BME280;69746;45.596;10.154;2023-09-07T04:01:17;99996.84;;;26.06;42.80
80410;BME280;69746;45.596;10.154;2023-09-07T04:03:43;100004.56;;;26.09;42.59
80410;BME280;69746;45.596;10.154;2023-09-07T04:06:09;99993.38;;;26.09;42.73
80410;BME280;69746;45.596;10.154;2023-09-07T04:08:35;99995.69;;;26.07;42.49
80410;BME280;69746;45.596;10.154;2023-09-07T04:11:07;99994.19;;;26.10;42.49
80410;BME280;69746;45.596;10.154;2023-09-07T04:13:35;99994.19;;;26.10;42.59
80410;BME280;69746;45.596;10.154;2023-09-07T04:16:01;99993.06;;;26.11;42.37
80410;BME280;69746;45.596;10.154;2023-09-07T04:18:27;99994.53;;;26.08;42.39
80410;BME280;69746;45.596;10.154;2023-09-07T04:20:53;99993.38;;;26.09;42.32
80410;BME280;69746;45.596;10.154;2023-09-07T04:23:18;99996.50;;;26.08;42.21
80410;BME280;69746;45.596;10.154;2023-09-07T04:25:44;99995.53;;;26.04;42.22
80410;BME280;69746;45.596;10.154;2023-09-07T04:28:10;99993.88;;;26.03;42.05
80410;BME280;69746;45.596;10.154;2023-09-07T04:30:41;99991.75;;;26.00;41.88
80410;BME280;69746;45.596;10.154;2023-09-07T04:33:07;99994.06;;;25.98;42.12
80410;BME280;69746;45.596;10.154;2023-09-07T04:35:33;99998.03;;;25.97;42.13
80410;BME280;69746;45.596;10.154;2023-09-07T04:38:02;99997.88;;;25.93;42.01
80410;BME280;69746;45.596;10.154;2023-09-07T04:40:28;99995.41;;;25.92;41.64
80410;BME280;69746;45.596;10.154;2023-09-07T04:42:53;99991.63;;;25.87;41.42
80410;BME280;69746;45.596;10.154;2023-09-07T04:45:19;100000.34;;;25.86;41.52
80410;BME280;69746;45.596;10.154;2023-09-07T04:47:45;99999.50;;;25.85;41.68
80410;BME280;69746;45.596;10.154;2023-09-07T04:50:11;100001.50;;;25.85;41.91
80410;BME280;69746;45.596;10.154;2023-09-07T04:52:36;99998.38;;;25.86;41.82
80410;BME280;69746;45.596;10.154;2023-09-07T04:55:02;100010.03;;;25.88;42.10
80410;BME280;69746;45.596;10.154;2023-09-07T04:57:30;100010.69;;;25.85;41.77
80410;BME280;69746;45.596;10.154;2023-09-07T04:59:56;100011.38;;;25.82;41.90
80410;BME280;69746;45.596;10.154;2023-09-07T05:02:24;100019.59;;;25.79;41.76
80410;BME280;69746;45.596;10.154;2023-09-07T05:04:51;100020.56;;;25.74;41.90
80410;BME280;69746;45.596;10.154;2023-09-07T05:07:16;100009.72;;;25.73;41.90
80410;BME280;69746;45.596;10.154;2023-09-07T05:09:42;100017.63;;;25.71;41.55
80410;BME280;69746;45.596;10.154;2023-09-07T05:12:08;100014.81;;;25.71;41.99
80410;BME280;69746;45.596;10.154;2023-09-07T05:14:34;100017.13;;;25.69;41.91
80410;BME280;69746;45.596;10.154;2023-09-07T05:16:59;100012.53;;;25.73;42.02
80410;BME280;69746;45.596;10.154;2023-09-07T05:19:25;100019.75;;;25.74;42.17
80410;BME280;69746;45.596;10.154;2023-09-07T05:21:53;100016.13;;;25.73;42.25
80410;BME280;69746;45.596;10.154;2023-09-07T05:24:19;100009.38;;;25.74;42.23
80410;BME280;69746;45.596;10.154;2023-09-07T05:26:45;100027.47;;;25.77;42.45
80410;BME280;69746;45.596;10.154;2023-09-07T05:29:11;100029.97;;;25.78;42.19
80410;BME280;69746;45.596;10.154;2023-09-07T05:31:37;100030.44;;;25.80;42.43
80410;BME280;69746;45.596;10.154;2023-09-07T05:34:03;100036.03;;;25.80;42.45
80410;BME280;69746;45.596;10.154;2023-09-07T05:36:29;100045.25;;;25.81;42.23
80410;BME280;69746;45.596;10.154;2023-09-07T05:38:57;100038.81;;;25.80;42.71
80410;BME280;69746;45.596;10.154;2023-09-07T05:41:23;100037.66;;;25.81;42.69
80410;BME280;69746;45.596;10.154;2023-09-07T05:43:49;100036.03;;;25.80;42.54
80410;BME280;69746;45.596;10.154;2023-09-07T05:46:15;100046.88;;;25.82;42.60
80410;BME280;69746;45.596;10.154;2023-09-07T05:48:44;100044.09;;;25.82;42.68
80410;BME280;69746;45.596;10.154;2023-09-07T05:51:10;100041.28;;;25.82;42.41
80410;BME280;69746;45.596;10.154;2023-09-07T05:56:01;100046.06;;;25.81;42.87
80410;BME280;69746;45.596;10.154;2023-09-07T05:58:27;100035.69;;;25.82;42.96
80410;BME280;69746;45.596;10.154;2023-09-07T06:00:53;100038.16;;;25.83;42.60
80410;BME280;69746;45.596;10.154;2023-09-07T06:03:19;100033.38;;;25.84;42.65
80410;BME280;69746;45.596;10.154;2023-09-07T06:05:45;100034.22;;;25.84;42.92
80410;BME280;69746;45.596;10.154;2023-09-07T06:08:10;100039.47;;;25.86;42.72
80410;BME280;69746;45.596;10.154;2023-09-07T06:10:36;100034.69;;;25.86;43.11
80410;BME280;69746;45.596;10.154;2023-09-07T06:13:05;100030.75;;;25.87;42.82
80410;BME280;69746;45.596;10.154;2023-09-07T06:15:31;100033.53;;;25.87;43.06
80410;BME280;69746;45.596;10.154;2023-09-07T06:17:57;100032.38;;;25.88;43.11
80410;BME280;69746;45.596;10.154;2023-09-07T06:20:25;100036.81;;;25.90;43.24
80410;BME280;69746;45.596;10.154;2023-09-07T06:22:51;100036.34;;;25.87;42.92
80410;BME280;69746;45.596;10.154;2023-09-07T06:25:17;100032.06;;;25.90;43.27
80410;BME280;69746;45.596;10.154;2023-09-07T06:27:43;100034.03;;;25.90;43.00
80410;BME280;69746;45.596;10.154;2023-09-07T06:30:09;100037.34;;;25.92;43.18
80410;BME280;69746;45.596;10.154;2023-09-07T06:32:36;100035.38;;;25.92;42.99
80410;BME280;69746;45.596;10.154;2023-09-07T06:35:04;100038.16;;;25.92;42.95
80410;BME280;69746;45.596;10.154;2023-09-07T06:37:30;100030.06;;;25.91;42.76
80410;BME280;69746;45.596;10.154;2023-09-07T06:39:59;100038.97;;;25.93;43.03
80410;BME280;69746;45.596;10.154;2023-09-07T06:42:27;100039.81;;;25.93;43.05
80410;BME280;69746;45.596;10.154;2023-09-07T06:44:53;100042.25;;;25.95;42.94
80410;BME280;69746;45.596;10.154;2023-09-07T06:47:19;100042.25;;;25.95;42.99
80410;BME280;69746;45.596;10.154;2023-09-07T06:49:44;100047.03;;;25.94;42.77
80410;BME280;69746;45.596;10.154;2023-09-07T06:52:10;100045.88;;;25.95;42.87
80410;BME280;69746;45.596;10.154;2023-09-07T06:54:37;100043.56;;;25.97;43.17
80410;BME280;69746;45.596;10.154;2023-09-07T06:57:06;100041.94;;;25.96;43.14
80410;BME280;69746;45.596;10.154;2023-09-07T06:59:33;100034.34;;;25.97;43.02
80410;BME280;69746;45.596;10.154;2023-09-07T07:01:59;100042.41;;;25.98;42.81
80410;BME280;69746;45.596;10.154;2023-09-07T07:04:27;100047.66;;;26.00;43.18
80410;BME280;69746;45.596;10.154;2023-09-07T07:06:55;100047.66;;;26.00;42.93
80410;BME280;69746;45.596;10.154;2023-09-07T07:09:21;100050.47;;;26.00;43.25
80410;BME280;69746;45.596;10.154;2023-09-07T07:11:53;100053.75;;;26.02;43.33
80410;BME280;69746;45.596;10.154;2023-09-07T07:14:20;100049.78;;;26.03;43.07
80410;BME280;69746;45.596;10.154;2023-09-07T07:16:46;100043.03;;;26.04;42.89
80410;BME280;69746;45.596;10.154;2023-09-07T07:19:12;100055.91;;;26.05;43.23
80410;BME280;69746;45.596;10.154;2023-09-07T07:21:40;100055.06;;;26.04;43.22
80410;BME280;69746;45.596;10.154;2023-09-07T07:24:07;100053.94;;;26.05;43.32
80410;BME280;69746;45.596;10.154;2023-09-07T07:26:34;100051.94;;;26.06;43.16
80410;BME280;69746;45.596;10.154;2023-09-07T07:29:00;100058.34;;;26.06;43.42
80410;BME280;69746;45.596;10.154;2023-09-07T07:31:26;100058.03;;;26.08;43.37
80410;BME280;69746;45.596;10.154;2023-09-07T07:33:52;100056.88;;;26.09;43.21
80410;BME280;69746;45.596;10.154;2023-09-07T07:36:18;100057.69;;;26.09;43.32
80410;BME280;69746;45.596;10.154;2023-09-07T07:38:44;100052.09;;;26.09;43.21
80410;BME280;69746;45.596;10.154;2023-09-07T07:41:10;100062.94;;;26.11;43.43
80410;BME280;69746;45.596;10.154;2023-09-07T07:43:36;100061.78;;;26.12;43.45
80410;BME280;69746;45.596;10.154;2023-09-07T07:46:02;100055.88;;;26.13;43.54
80410;BME280;69746;45.596;10.154;2023-09-07T07:48:28;100055.03;;;26.13;43.31
80410;BME280;69746;45.596;10.154;2023-09-07T07:50:55;100058.31;;;26.15;43.01
80410;BME280;69746;45.596;10.154;2023-09-07T07:53:24;100059.16;;;26.15;43.25
80410;BME280;69746;45.596;10.154;2023-09-07T07:55:51;100051.56;;;26.16;43.40
80410;BME280;69746;45.596;10.154;2023-09-07T07:58:17;100061.59;;;26.17;43.43
80410;BME280;69746;45.596;10.154;2023-09-07T08:00:45;100050.13;;;26.19;43.37
80410;BME280;69746;45.596;10.154;2023-09-07T08:03:13;100051.75;;;26.20;43.22
80410;BME280;69746;45.596;10.154;2023-09-07T08:05:40;100063.75;;;26.20;43.45
80410;BME280;69746;45.596;10.154;2023-09-07T08:08:06;100048.63;;;26.21;43.37
80410;BME280;69746;45.596;10.154;2023-09-07T08:10:36;100059.47;;;26.23;43.03
80410;BME280;69746;45.596;10.154;2023-09-07T08:13:03;100069.50;;;26.24;43.50
80410;BME280;69746;45.596;10.154;2023-09-07T08:15:32;100066.72;;;26.24;43.48
80410;BME280;69746;45.596;10.154;2023-09-07T08:17:58;100064.25;;;26.22;43.10
80410;BME280;69746;45.596;10.154;2023-09-07T08:20:27;100067.19;;;26.26;43.09
80410;BME280;69746;45.596;10.154;2023-09-07T08:22:54;100068.84;;;26.27;43.06
80410;BME280;69746;45.596;10.154;2023-09-07T08:25:20;100070.47;;;26.28;43.31
80410;BME280;69746;45.596;10.154;2023-09-07T08:27:46;100070.13;;;26.29;43.44
80410;BME280;69746;45.596;10.154;2023-09-07T08:30:15;100064.53;;;26.29;43.41
80410;BME280;69746;45.596;10.154;2023-09-07T08:32:43;100068.97;;;26.30;43.17
80410;BME280;69746;45.596;10.154;2023-09-07T08:35:11;100061.44;;;26.31;43.08
80410;BME280;69746;45.596;10.154;2023-09-07T08:37:40;100058.63;;;26.31;43.12
80410;BME280;69746;45.596;10.154;2023-09-07T08:40:07;100060.94;;;26.29;43.47
80410;BME280;69746;45.596;10.154;2023-09-07T08:42:35;100063.91;;;26.32;43.20
80410;BME280;69746;45.596;10.154;2023-09-07T08:45:05;100061.09;;;26.32;43.26
80410;BME280;69746;45.596;10.154;2023-09-07T08:47:37;100060.75;;;26.34;43.42
80410;BME280;69746;45.596;10.154;2023-09-07T08:50:05;100061.59;;;26.34;43.17
80410;BME280;69746;45.596;10.154;2023-09-07T08:52:35;100062.41;;;26.35;43.56
80410;BME280;69746;45.596;10.154;2023-09-07T08:55:02;100061.28;;;26.36;43.56
80410;BME280;69746;45.596;10.154;2023-09-07T08:57:30;100058.47;;;26.36;43.44
80410;BME280;69746;45.596;10.154;2023-09-07T08:59:57;100060.13;;;26.37;43.47
80410;BME280;69746;45.596;10.154;2023-09-07T09:02:23;100058.97;;;26.38;43.14
80410;BME280;69746;45.596;10.154;2023-09-07T09:04:50;100066.19;;;26.39;43.16
80410;BME280;69746;45.596;10.154;2023-09-07T09:07:18;100062.59;;;26.38;42.96
80410;BME280;69746;45.596;10.154;2023-09-07T09:09:44;100064.22;;;26.39;43.04
80410;BME280;69746;45.596;10.154;2023-09-07T09:12:13;100067.03;;;26.39;42.81
80410;BME280;69746;45.596;10.154;2023-09-07T09:14:42;100058.28;;;26.41;43.08
80410;BME280;69746;45.596;10.154;2023-09-07T09:17:14;100059.09;;;26.41;42.89
80410;BME280;69746;45.596;10.154;2023-09-07T09:19:40;100057.94;;;26.42;43.30
80410;BME280;69746;45.596;10.154;2023-09-07T09:22:08;100058.28;;;26.41;42.70
80410;BME280;69746;45.596;10.154;2023-09-07T09:24:35;100049.56;;;26.42;42.98
80410;BME280;69746;45.596;10.154;2023-09-07T09:27:01;100056.81;;;26.43;42.65
80410;BME280;69746;45.596;10.154;2023-09-07T09:29:32;100060.44;;;26.44;42.77
80410;BME280;69746;45.596;10.154;2023-09-07T09:32:07;100067.69;;;26.45;43.08
80410;BME280;69746;45.596;10.154;2023-09-07T09:34:34;100059.63;;;26.43;42.74
80410;BME280;69746;45.596;10.154;2023-09-07T09:37:04;100056.97;;;26.47;42.77
80410;BME280;69746;45.596;10.154;2023-09-07T09:39:30;100053.34;;;26.47;42.87
80410;BME280;69746;45.596;10.154;2023-09-07T09:42:01;100057.78;;;26.48;42.99
80410;BME280;69746;45.596;10.154;2023-09-07T09:44:29;100045.78;;;26.47;42.77
80410;BME280;69746;45.596;10.154;2023-09-07T09:47:01;100039.03;;;26.48;42.71
80410;BME280;69746;45.596;10.154;2023-09-07T09:49:29;100041.00;;;26.48;42.93
80410;BME280;69746;45.596;10.154;2023-09-07T09:51:55;100039.03;;;26.48;42.76
80410;BME280;69746;45.596;10.154;2023-09-07T09:54:25;100038.69;;;26.50;42.78
80410;BME280;69746;45.596;10.154;2023-09-07T09:56:52;100033.09;;;26.50;43.21
80410;BME280;69746;45.596;10.154;2023-09-07T09:59:18;100034.72;;;26.51;42.81
80410;BME280;69746;45.596;10.154;2023-09-07T10:01:47;100036.38;;;26.52;42.74
80410;BME280;69746;45.596;10.154;2023-09-07T10:04:17;100030.78;;;26.52;43.41
80410;BME280;69746;45.596;10.154;2023-09-07T10:06:54;100029.63;;;26.53;43.25
80410;BME280;69746;45.596;10.154;2023-09-07T10:09:21;100026.69;;;26.49;43.03
80410;BME280;69746;45.596;10.154;2023-09-07T10:11:54;100018.09;;;26.54;42.80
80410;BME280;69746;45.596;10.154;2023-09-07T10:14:20;100024.84;;;26.53;42.84
80410;BME280;69746;45.596;10.154;2023-09-07T10:16:50;100016.09;;;26.55;43.08
80410;BME280;69746;45.596;10.154;2023-09-07T10:19:23;100019.41;;;26.57;43.07
80410;BME280;69746;45.596;10.154;2023-09-07T10:21:52;100025.00;;;26.57;42.77
80410;BME280;69746;45.596;10.154;2023-09-07T10:24:27;100016.63;;;26.57;43.16
80410;BME280;69746;45.596;10.154;2023-09-07T10:27:02;100017.44;;;26.57;43.18
80410;BME280;69746;45.596;10.154;2023-09-07T10:29:29;100017.44;;;26.57;42.85
80410;BME280;69746;45.596;10.154;2023-09-07T10:31:54;100014.31;;;26.59;42.92
80410;BME280;69746;45.596;10.154;2023-09-07T10:34:20;100015.47;;;26.58;42.95
80410;BME280;69746;45.596;10.154;2023-09-07T10:36:48;100013.47;;;26.58;42.82
80410;BME280;69746;45.596;10.154;2023-09-07T10:39:18;100015.13;;;26.59;42.78
80410;BME280;69746;45.596;10.154;2023-09-07T10:41:47;100016.75;;;26.60;42.83
80410;BME280;69746;45.596;10.154;2023-09-07T10:44:13;100011.16;;;26.60;42.57
80410;BME280;69746;45.596;10.154;2023-09-07T10:46:40;100013.63;;;26.62;42.55
80410;BME280;69746;45.596;10.154;2023-09-07T10:49:12;100008.84;;;26.62;42.89
80410;BME280;69746;45.596;10.154;2023-09-07T10:51:43;100008.84;;;26.62;42.64
80410;BME280;69746;45.596;10.154;2023-09-07T10:54:16;100009.66;;;26.63;42.89
80410;BME280;69746;45.596;10.154;2023-09-07T10:56:44;100007.69;;;26.63;43.12
80410;BME280;69746;45.596;10.154;2023-09-07T10:59:10;100003.25;;;26.62;42.71
80410;BME280;69746;45.596;10.154;2023-09-07T11:01:36;99990.91;;;26.63;42.58
80410;BME280;69746;45.596;10.154;2023-09-07T11:04:05;99996.97;;;26.65;42.62
80410;BME280;69746;45.596;10.154;2023-09-07T11:06:34;99987.75;;;26.65;42.75
80410;BME280;69746;45.596;10.154;2023-09-07T11:09:01;99989.75;;;26.64;42.55
80410;BME280;69746;45.596;10.154;2023-09-07T11:11:31;99982.16;;;26.65;42.87
80410;BME280;69746;45.596;10.154;2023-09-07T11:13:59;99981.81;;;26.66;42.62
80410;BME280;69746;45.596;10.154;2023-09-07T11:16:25;99984.63;;;26.66;42.69
80410;BME280;69746;45.596;10.154;2023-09-07T11:18:53;99973.41;;;26.66;42.70
80410;BME280;69746;45.596;10.154;2023-09-07T11:21:20;99978.19;;;26.66;42.64
80410;BME280;69746;45.596;10.154;2023-09-07T11:23:46;99976.22;;;26.66;42.60
80410;BME280;69746;45.596;10.154;2023-09-07T11:26:13;99976.22;;;26.66;42.92
80410;BME280;69746;45.596;10.154;2023-09-07T11:28:41;99984.28;;;26.68;42.71
80410;BME280;69746;45.596;10.154;2023-09-07T11:31:08;99976.69;;;26.68;42.83
80410;BME280;69746;45.596;10.154;2023-09-07T11:33:34;99971.91;;;26.69;42.95
80410;BME280;69746;45.596;10.154;2023-09-07T11:36:02;99977.53;;;26.69;42.56
80410;BME280;69746;45.596;10.154;2023-09-07T11:38:35;99968.31;;;26.68;42.67
80410;BME280;69746;45.596;10.154;2023-09-07T11:41:01;99965.19;;;26.70;42.50
80410;BME280;69746;45.596;10.154;2023-09-07T11:43:28;99972.44;;;26.71;42.57
80410;BME280;69746;45.596;10.154;2023-09-07T11:45:54;99969.63;;;26.71;42.65
80410;BME280;69746;45.596;10.154;2023-09-07T11:48:22;99970.44;;;26.71;42.42
80410;BME280;69746;45.596;10.154;2023-09-07T11:50:50;99964.03;;;26.71;42.63
80410;BME280;69746;45.596;10.154;2023-09-07T11:53:16;99965.34;;;26.73;42.27
80410;BME280;69746;45.596;10.154;2023-09-07T11:55:45;99959.41;;;26.75;42.36
80410;BME280;69746;45.596;10.154;2023-09-07T11:58:10;99951.34;;;26.73;42.48
80410;BME280;69746;45.596;10.154;2023-09-07T12:00:36;99957.75;;;26.74;42.60
80410;BME280;69746;45.596;10.154;2023-09-07T12:03:03;99948.53;;;26.73;42.52
80410;BME280;69746;45.596;10.154;2023-09-07T12:05:30;99951.34;;;26.73;42.60
80410;BME280;69746;45.596;10.154;2023-09-07T12:07:56;99943.75;;;26.74;42.95
80410;BME280;69746;45.596;10.154;2023-09-07T12:10:23;99938.16;;;26.74;42.61
80410;BME280;69746;45.596;10.154;2023-09-07T12:12:49;99945.41;;;26.75;42.68
80410;BME280;69746;45.596;10.154;2023-09-07T12:15:15;99944.59;;;26.74;42.93
80410;BME280;69746;45.596;10.154;2023-09-07T12:17:40;99949.00;;;26.75;43.13
80410;BME280;69746;45.596;10.154;2023-09-07T12:20:10;99937.00;;;26.75;43.13
80410;BME280;69746;45.596;10.154;2023-09-07T12:22:36;99938.63;;;26.76;42.76
80410;BME280;69746;45.596;10.154;2023-09-07T12:25:05;99935.03;;;26.75;42.46
80410;BME280;69746;45.596;10.154;2023-09-07T12:27:34;99930.25;;;26.76;42.70
80410;BME280;69746;45.596;10.154;2023-09-07T12:30:01;99933.03;;;26.76;42.67
80410;BME280;69746;45.596;10.154;2023-09-07T12:32:27;99924.66;;;26.76;42.83
80410;BME280;69746;45.596;10.154;2023-09-07T12:34:53;99919.88;;;26.77;42.60
80410;BME280;69746;45.596;10.154;2023-09-07T12:37:19;99914.59;;;26.75;42.91
80410;BME280;69746;45.596;10.154;2023-09-07T12:39:49;99916.25;;;26.76;42.60
80410;BME280;69746;45.596;10.154;2023-09-07T12:42:18;99908.66;;;26.77;42.65
80410;BME280;69746;45.596;10.154;2023-09-07T12:44:44;99902.72;;;26.78;42.84